BYU2
, Provo
Last Weather Update:04/16/2012 10:00:00 AM
Date
ETo
ETc
Rain
Irrigation
Req
Temp
Max
Temp
Min
Temp
Avg
Avg RH
Avg Wind
Avg Solar
inches
inches
incehs
inches
F
F
F
%
%
watts/m2
03/01/2012 0.05" 0.00" 0.08" -0.08" 36.2° 26.5° 30.6° 78.1% 3.8 MPH 138.5w/m2
03/02/2012 0.05" 0.00" 0.07" -0.07" 32.8° 24.0° 27.9° 69.9% 4.9 MPH 176.5w/m2
03/03/2012 0.05" 0.00" 0.00" 0.00" 39.3° 26.2° 33.2° 58.9% 1.9 MPH 113.8w/m2
03/04/2012 0.09" 0.00" 0.00" 0.00" 52.4° 29.7° 40.5° 62.9% 1.7 MPH 215.0w/m2
03/05/2012 0.12" 0.00" 0.00" 0.00" 64.5° 29.5° 47.5° 49.2% 2.6 MPH 212.8w/m2
03/06/2012 0.09" 0.00" 0.00" 0.00" 59.2° 29.3° 48.0° 42.7% 5.2 MPH 87.3w/m2
03/07/2012 0.07" 0.00" 0.00" 0.00" 44.3° 27.9° 34.0° 69.2% 3.6 MPH 176.4w/m2
03/08/2012 0.09" 0.00" 0.00" 0.00" 49.2° 26.5° 36.2° 57.7% 2.2 MPH 222.9w/m2
03/09/2012 0.09" 0.00" 0.00" 0.00" 53.4° 26.9° 39.3° 59.1% 1.8 MPH 222.6w/m2
03/10/2012 0.11" 0.00" 0.00" 0.00" 62.1° 28.6° 44.5° 51.2% 1.7 MPH 227.8w/m2
03/11/2012 0.13" 0.00" 0.00" 0.00" 63.3° 34.5° 50.2° 40.4% 3.6 MPH 226.9w/m2
03/12/2012 0.15" 0.00" 0.00" 0.00" 65.0° 40.5° 55.5° 27.2% 4.1 MPH 225.1w/m2
03/13/2012 0.15" 0.00" 0.00" 0.00" 65.4° 46.3° 57.2° 24.5% 5.1 MPH 183.1w/m2
03/14/2012 0.13" 0.00" 0.00" 0.00" 63.1° 48.2° 56.7° 29.4% 4.1 MPH 166.6w/m2
03/15/2012 0.13" 0.00" 0.00" 0.00" 68.3° 45.3° 57.0° 40.2% 2.3 MPH 204.2w/m2
03/16/2012 0.12" 0.00" 0.00" 0.00" 67.2° 44.8° 57.9° 36.0% 4.0 MPH 126.0w/m2
03/17/2012 0.13" 0.00" 0.00" 0.00" 62.0° 50.7° 57.4° 36.1% 6.4 MPH 59.4w/m2
03/18/2012 0.03" 0.00" 0.66" -0.66" 52.9° 30.7° 37.9° 82.9% 4.8 MPH 40.0w/m2
03/19/2012 0.08" 0.00" 0.09" -0.09" 41.9° 30.4° 34.9° 74.1% 4.3 MPH 189.2w/m2
03/20/2012 0.08" 0.00" 0.01" -0.01" 45.6° 25.5° 36.2° 66.0% 2.3 MPH 208.4w/m2
03/21/2012 0.12" 0.00" 0.00" 0.00" 59.7° 38.6° 48.2° 51.2% 2.4 MPH 253.4w/m2
03/22/2012 0.15" 0.00" 0.00" 0.00" 70.1° 38.1° 53.1° 45.2% 2.5 MPH 253.5w/m2
03/23/2012 0.14" 0.00" 0.00" 0.00" 70.6° 46.2° 59.5° 34.9% 4.1 MPH 179.1w/m2
03/24/2012 0.13" 0.00" 0.00" 0.00" 69.4° 47.1° 60.2° 36.4% 2.3 MPH 190.1w/m2
03/25/2012 0.11" 0.00" 0.00" 0.00" 70.2° 48.1° 60.9° 30.3% 2.5 MPH 134.0w/m2
03/26/2012 0.08" 0.00" 0.00" 0.00" 64.0° 36.7° 48.1° 46.0% 5.3 MPH 98.1w/m2
03/27/2012 0.10" 0.00" 0.00" 0.00" 60.7° 36.1° 49.4° 44.2% 2.1 MPH 174.0w/m2
03/28/2012 0.14" 0.00" 0.00" 0.00" 65.4° 41.9° 53.7° 43.2% 3.9 MPH 192.0w/m2
03/29/2012 0.12" 0.00" 0.00" 0.00" 63.1° 40.3° 51.9° 60.4% 2.5 MPH 209.2w/m2
03/30/2012 0.15" 0.00" 0.00" 0.00" 71.0° 42.9° 56.8° 47.3% 2.5 MPH 238.8w/m2
03/31/2012 0.21" 0.00" 0.00" 0.00" 78.2° 47.5° 63.0° 37.3% 5.0 MPH 256.2w/m2
Totals: 3.37" 0.00" 0.91" -0.91" 78.2° 24.0° 48.0° 49.4% 3.4 MPH 180.7w/m2